This is the latest recevied weather packets stored in our database for station/object OM6ACB-6. If no packets are shown the sender has not sent any weather packets the latest 10 day(s).
| Time | Temp. | Humidity | Pressure | Rain* | Wind** | Luminosity | Snow |
|---|---|---|---|---|---|---|---|
| 1788362650 | 25.56° C | 20% | 1024.6 hPa | 0 mm | - | - | - |
| 1788362049 | 24.44° C | 20% | 1024.4 hPa | 0 mm | - | - | - |
| 1788361449 | 26.11° C | 20% | 1024.7 hPa | 0 mm | - | - | - |
| 1788360849 | 28.89° C | 20% | 1025.1 hPa | 0 mm | - | - | - |
| 1788360248 | 27.22° C | 20% | 1024.9 hPa | 0 mm | - | - | - |
| 1788359648 | 29.44° C | 20% | 1025.3 hPa | 0 mm | - | - | - |
| 1788359048 | 28.33° C | 20% | 1025.2 hPa | 0 mm | - | - | - |
| 1788358447 | 27.78° C | 20% | 1024.9 hPa | 0 mm | - | - | - |
| 1788357847 | 26.67° C | 20% | 1025.4 hPa | 0 mm | - | - | - |
| 1788357247 | 27.78° C | 20% | 1025.3 hPa | 0 mm | - | - | - |
| 1788356647 | 23.89° C | 20% | 1024.8 hPa | 0 mm | - | - | - |
| 1788356046 | 25° C | 20% | 1025 hPa | 0 mm | - | - | - |
| 1788355446 | 25° C | 20% | 1024.9 hPa | 0 mm | - | - | - |
| 1788354846 | 23.89° C | 21% | 1024.9 hPa | 0 mm | - | - | - |
| 1788354245 | 25.56° C | 20% | 1025.2 hPa | 0 mm | - | - | - |
| 1788353645 | 26.67° C | 20% | 1025.5 hPa | 0 mm | - | - | - |
| 1788353045 | 24.44° C | 20% | 1025.4 hPa | 0 mm | - | - | - |
| 1788352445 | 23.89° C | 21% | 1025.5 hPa | 0 mm | - | - | - |
| 1788351844 | 24.44° C | 20% | 1025.6 hPa | 0 mm | - | - | - |
| 1788351244 | 22.78° C | 21% | 1025.5 hPa | 0 mm | - | - | - |
| 1788350644 | 23.33° C | 21% | 1025.6 hPa | 0 mm | - | - | - |
| 1788350043 | 23.33° C | 21% | 1025.6 hPa | 0 mm | - | - | - |
| 1788349443 | 23.33° C | 21% | 1025.7 hPa | 0 mm | - | - | - |
| 1788348843 | 24.44° C | 20% | 1025.9 hPa | 0 mm | - | - | - |
| 1788348243 | 25° C | 20% | 1026.2 hPa | 0 mm | - | - | - |
* Rain latest hour (hover to see other rain measurements)
** Current wind speed in m/s (hover to see current wind gust speed)